首页
METAR-TAF:

METAR-TAF

机场 :

雅温得, 喀麦隆

雅温得-恩西马兰国际机场

纬度: 03-50N, 经度: 011-31E, 海拔: 751米

当前天气观测

该预报发布于55分钟前的06:00 UTC
温度 23°C
湿度 94%
气压 1017 hPa
能见度10公里或以上
多云层高于600英尺

METAR: FKYS 250600Z /////KT 9999 BKN006 23/22 Q1017 NOSIG

时间: 07:55 (06:55 UTC)

预报

该预报发布于1小时和55分钟前的05:00 UTC
预报有效从25日的 06点(UTC)到 26日的 06点(UTC)
风速6节,风向西
能見度: 8000
多云层高于600英尺
成为
从 25日的 06点(UTC)到 25日的 08点(UTC)
多云层高于1300英尺
成为
从 25日的 08点(UTC)到 25日的 10点(UTC)
多云层高于1600英尺
几率 30% :
短暂存在
从 25日的 15点(UTC)到 25日的 21点(UTC)
能見度: 3000
多云层高于1300英尺
少量云层高于2000英尺, 积雨云.
雷暴, 雨

TAF: FKYS 250500Z 2506/2606 26006KT 8000 BKN006 BECMG 2506/2508 BKN013 BECMG 2508/2510 BKN016 PROB30 TEMPO 2515/2521 3000 TSRA BKN013 FEW020CB

超过4000个机场的气象观测和天气预报(METAR&TAF报告)。

可查询的气象台以黄色和红色小点在地图上表示。

将鼠标移到小点上方,可查看气象台名称。

然后点击查看天气观测和预报。

如需切换地图:点击带黑十字的绿色按钮放大地图;点击带横线的绿色按钮缩小地图;或者点击绿色箭头查看邻近地区的地图。


METAR-TAF: